sensor_id;sensor_type;location;lat;lon;timestamp;P1;durP1;ratioP1;P2;durP2;ratioP2
69954;SDS011;57279;55.912;37.490;2023-04-25T00:01:11;37.47;;;7.38;;
69954;SDS011;57279;55.912;37.490;2023-04-25T00:03:38;42.00;;;7.72;;
69954;SDS011;57279;55.912;37.490;2023-04-25T00:06:05;52.30;;;9.25;;
69954;SDS011;57279;55.912;37.490;2023-04-25T00:08:32;65.00;;;8.77;;
69954;SDS011;57279;55.912;37.490;2023-04-25T00:10:58;51.35;;;9.00;;
69954;SDS011;57279;55.912;37.490;2023-04-25T00:13:24;51.70;;;8.77;;
69954;SDS011;57279;55.912;37.490;2023-04-25T00:15:51;38.03;;;8.30;;
69954;SDS011;57279;55.912;37.490;2023-04-25T00:18:18;42.47;;;8.65;;
69954;SDS011;57279;55.912;37.490;2023-04-25T00:20:45;29.08;;;7.93;;
69954;SDS011;57279;55.912;37.490;2023-04-25T00:23:15;31.67;;;8.65;;
69954;SDS011;57279;55.912;37.490;2023-04-25T00:25:43;27.98;;;8.15;;
69954;SDS011;57279;55.912;37.490;2023-04-25T00:28:10;27.70;;;8.65;;
69954;SDS011;57279;55.912;37.490;2023-04-25T00:30:37;29.98;;;8.27;;
69954;SDS011;57279;55.912;37.490;2023-04-25T00:33:03;26.33;;;8.55;;
69954;SDS011;57279;55.912;37.490;2023-04-25T00:35:28;27.10;;;7.90;;
69954;SDS011;57279;55.912;37.490;2023-04-25T00:37:54;27.73;;;7.88;;
69954;SDS011;57279;55.912;37.490;2023-04-25T00:40:20;24.45;;;7.22;;
69954;SDS011;57279;55.912;37.490;2023-04-25T00:42:46;27.17;;;6.05;;
69954;SDS011;57279;55.912;37.490;2023-04-25T00:45:13;20.98;;;7.13;;
69954;SDS011;57279;55.912;37.490;2023-04-25T00:47:42;25.67;;;6.97;;
69954;SDS011;57279;55.912;37.490;2023-04-25T00:50:09;19.23;;;7.03;;
69954;SDS011;57279;55.912;37.490;2023-04-25T00:52:36;17.35;;;7.00;;
69954;SDS011;57279;55.912;37.490;2023-04-25T00:55:03;20.33;;;6.57;;
69954;SDS011;57279;55.912;37.490;2023-04-25T00:57:30;24.52;;;6.45;;
69954;SDS011;57279;55.912;37.490;2023-04-25T00:59:55;20.83;;;7.03;;
69954;SDS011;57279;55.912;37.490;2023-04-25T01:02:21;17.50;;;6.50;;
69954;SDS011;57279;55.912;37.490;2023-04-25T01:04:47;15.02;;;5.50;;
69954;SDS011;57279;55.912;37.490;2023-04-25T01:07:13;17.33;;;5.13;;
69954;SDS011;57279;55.912;37.490;2023-04-25T01:09:40;20.13;;;5.85;;
69954;SDS011;57279;55.912;37.490;2023-04-25T01:12:07;23.88;;;6.85;;
69954;SDS011;57279;55.912;37.490;2023-04-25T01:14:33;23.33;;;7.15;;
69954;SDS011;57279;55.912;37.490;2023-04-25T01:16:58;17.92;;;4.90;;
69954;SDS011;57279;55.912;37.490;2023-04-25T01:19:24;22.02;;;6.40;;
69954;SDS011;57279;55.912;37.490;2023-04-25T01:21:51;15.57;;;5.82;;
69954;SDS011;57279;55.912;37.490;2023-04-25T01:24:17;17.05;;;4.60;;
69954;SDS011;57279;55.912;37.490;2023-04-25T01:26:43;18.13;;;5.15;;
69954;SDS011;57279;55.912;37.490;2023-04-25T01:29:17;16.00;;;4.93;;
69954;SDS011;57279;55.912;37.490;2023-04-25T01:31:44;12.70;;;4.60;;
69954;SDS011;57279;55.912;37.490;2023-04-25T01:34:10;15.13;;;4.72;;
69954;SDS011;57279;55.912;37.490;2023-04-25T01:36:36;17.15;;;4.57;;
69954;SDS011;57279;55.912;37.490;2023-04-25T01:39:02;13.95;;;3.75;;
69954;SDS011;57279;55.912;37.490;2023-04-25T01:41:29;20.70;;;4.90;;
69954;SDS011;57279;55.912;37.490;2023-04-25T01:43:55;16.02;;;4.50;;
69954;SDS011;57279;55.912;37.490;2023-04-25T01:46:21;13.90;;;5.28;;
69954;SDS011;57279;55.912;37.490;2023-04-25T01:48:47;24.17;;;5.82;;
69954;SDS011;57279;55.912;37.490;2023-04-25T01:51:12;18.40;;;5.22;;
69954;SDS011;57279;55.912;37.490;2023-04-25T01:53:39;18.10;;;5.50;;
69954;SDS011;57279;55.912;37.490;2023-04-25T01:56:05;21.98;;;6.03;;
69954;SDS011;57279;55.912;37.490;2023-04-25T01:58:33;27.58;;;6.80;;
69954;SDS011;57279;55.912;37.490;2023-04-25T02:01:04;22.75;;;5.95;;
69954;SDS011;57279;55.912;37.490;2023-04-25T02:03:38;16.42;;;6.28;;
69954;SDS011;57279;55.912;37.490;2023-04-25T02:06:07;21.33;;;6.05;;
69954;SDS011;57279;55.912;37.490;2023-04-25T02:08:37;24.15;;;5.72;;
69954;SDS011;57279;55.912;37.490;2023-04-25T02:11:03;29.80;;;7.30;;
69954;SDS011;57279;55.912;37.490;2023-04-25T02:13:35;27.63;;;6.55;;
69954;SDS011;57279;55.912;37.490;2023-04-25T02:16:10;23.65;;;6.32;;
69954;SDS011;57279;55.912;37.490;2023-04-25T02:18:37;28.50;;;5.50;;
69954;SDS011;57279;55.912;37.490;2023-04-25T02:21:05;22.52;;;6.70;;
69954;SDS011;57279;55.912;37.490;2023-04-25T02:23:31;25.23;;;6.47;;
69954;SDS011;57279;55.912;37.490;2023-04-25T02:25:58;19.17;;;6.43;;
69954;SDS011;57279;55.912;37.490;2023-04-25T02:28:24;21.30;;;7.05;;
69954;SDS011;57279;55.912;37.490;2023-04-25T02:30:51;27.17;;;7.10;;
69954;SDS011;57279;55.912;37.490;2023-04-25T02:33:17;28.58;;;6.68;;
69954;SDS011;57279;55.912;37.490;2023-04-25T02:35:43;19.58;;;6.88;;
69954;SDS011;57279;55.912;37.490;2023-04-25T02:38:08;25.20;;;7.07;;
69954;SDS011;57279;55.912;37.490;2023-04-25T02:40:34;20.38;;;6.47;;
69954;SDS011;57279;55.912;37.490;2023-04-25T02:43:00;27.70;;;7.05;;
69954;SDS011;57279;55.912;37.490;2023-04-25T02:45:25;21.00;;;6.38;;
69954;SDS011;57279;55.912;37.490;2023-04-25T02:47:51;23.05;;;6.45;;
69954;SDS011;57279;55.912;37.490;2023-04-25T02:50:18;19.08;;;5.60;;
69954;SDS011;57279;55.912;37.490;2023-04-25T02:52:43;25.13;;;5.20;;
69954;SDS011;57279;55.912;37.490;2023-04-25T02:55:14;18.67;;;6.07;;
69954;SDS011;57279;55.912;37.490;2023-04-25T02:57:41;10.77;;;5.07;;
69954;SDS011;57279;55.912;37.490;2023-04-25T03:00:10;16.05;;;5.20;;
69954;SDS011;57279;55.912;37.490;2023-04-25T03:02:37;15.88;;;4.80;;
69954;SDS011;57279;55.912;37.490;2023-04-25T03:05:03;19.10;;;5.05;;
69954;SDS011;57279;55.912;37.490;2023-04-25T03:07:29;18.30;;;5.30;;
69954;SDS011;57279;55.912;37.490;2023-04-25T03:09:54;15.50;;;5.88;;
69954;SDS011;57279;55.912;37.490;2023-04-25T03:12:22;18.13;;;5.72;;
69954;SDS011;57279;55.912;37.490;2023-04-25T03:14:47;16.02;;;5.63;;
69954;SDS011;57279;55.912;37.490;2023-04-25T03:17:14;16.48;;;5.53;;
69954;SDS011;57279;55.912;37.490;2023-04-25T03:19:40;13.15;;;5.10;;
69954;SDS011;57279;55.912;37.490;2023-04-25T03:22:05;24.17;;;5.40;;
69954;SDS011;57279;55.912;37.490;2023-04-25T03:24:31;18.08;;;4.20;;
69954;SDS011;57279;55.912;37.490;2023-04-25T03:26:57;18.25;;;5.38;;
69954;SDS011;57279;55.912;37.490;2023-04-25T03:29:23;16.45;;;5.82;;
69954;SDS011;57279;55.912;37.490;2023-04-25T03:31:52;13.75;;;3.90;;
69954;SDS011;57279;55.912;37.490;2023-04-25T03:34:18;17.10;;;4.75;;
69954;SDS011;57279;55.912;37.490;2023-04-25T03:36:45;17.27;;;4.18;;
69954;SDS011;57279;55.912;37.490;2023-04-25T03:39:11;17.40;;;5.55;;
69954;SDS011;57279;55.912;37.490;2023-04-25T03:41:39;15.68;;;4.72;;
69954;SDS011;57279;55.912;37.490;2023-04-25T03:44:10;13.48;;;5.10;;
69954;SDS011;57279;55.912;37.490;2023-04-25T03:46:36;16.17;;;4.28;;
69954;SDS011;57279;55.912;37.490;2023-04-25T03:49:01;13.73;;;4.85;;
69954;SDS011;57279;55.912;37.490;2023-04-25T03:51:43;16.33;;;4.00;;
69954;SDS011;57279;55.912;37.490;2023-04-25T03:54:09;18.48;;;5.10;;
69954;SDS011;57279;55.912;37.490;2023-04-25T03:56:53;17.63;;;5.05;;
69954;SDS011;57279;55.912;37.490;2023-04-25T03:59:22;14.35;;;5.10;;
69954;SDS011;57279;55.912;37.490;2023-04-25T04:01:47;15.23;;;5.18;;
69954;SDS011;57279;55.912;37.490;2023-04-25T04:04:13;22.85;;;6.95;;
69954;SDS011;57279;55.912;37.490;2023-04-25T04:06:39;29.27;;;4.72;;
69954;SDS011;57279;55.912;37.490;2023-04-25T04:09:22;18.23;;;4.13;;
69954;SDS011;57279;55.912;37.490;2023-04-25T04:11:48;18.50;;;4.43;;
69954;SDS011;57279;55.912;37.490;2023-04-25T04:14:14;21.23;;;5.53;;
69954;SDS011;57279;55.912;37.490;2023-04-25T04:16:44;18.58;;;5.32;;
69954;SDS011;57279;55.912;37.490;2023-04-25T04:19:10;20.50;;;5.03;;
69954;SDS011;57279;55.912;37.490;2023-04-25T04:21:39;16.85;;;6.25;;
69954;SDS011;57279;55.912;37.490;2023-04-25T04:24:05;21.45;;;5.13;;
69954;SDS011;57279;55.912;37.490;2023-04-25T04:26:41;23.13;;;4.88;;
69954;SDS011;57279;55.912;37.490;2023-04-25T04:29:28;33.53;;;5.10;;
69954;SDS011;57279;55.912;37.490;2023-04-25T04:32:01;25.50;;;5.30;;
69954;SDS011;57279;55.912;37.490;2023-04-25T04:34:29;24.83;;;7.00;;
69954;SDS011;57279;55.912;37.490;2023-04-25T04:36:56;27.10;;;6.18;;
69954;SDS011;57279;55.912;37.490;2023-04-25T04:39:22;26.42;;;6.55;;
69954;SDS011;57279;55.912;37.490;2023-04-25T04:42:09;23.88;;;4.43;;
69954;SDS011;57279;55.912;37.490;2023-04-25T04:45:04;16.45;;;5.43;;
69954;SDS011;57279;55.912;37.490;2023-04-25T04:47:44;19.90;;;5.15;;
69954;SDS011;57279;55.912;37.490;2023-04-25T04:50:29;35.67;;;6.20;;
69954;SDS011;57279;55.912;37.490;2023-04-25T04:53:15;24.67;;;5.95;;
69954;SDS011;57279;55.912;37.490;2023-04-25T04:55:57;21.63;;;6.05;;
69954;SDS011;57279;55.912;37.490;2023-04-25T04:58:46;26.10;;;7.35;;
69954;SDS011;57279;55.912;37.490;2023-04-25T05:01:32;38.70;;;8.00;;
69954;SDS011;57279;55.912;37.490;2023-04-25T05:04:27;26.35;;;7.32;;
69954;SDS011;57279;55.912;37.490;2023-04-25T05:07:25;31.67;;;7.28;;
69954;SDS011;57279;55.912;37.490;2023-04-25T05:10:03;23.08;;;7.82;;
69954;SDS011;57279;55.912;37.490;2023-04-25T05:12:58;26.60;;;8.70;;
69954;SDS011;57279;55.912;37.490;2023-04-25T05:15:42;27.08;;;9.40;;
69954;SDS011;57279;55.912;37.490;2023-04-25T05:18:26;28.48;;;9.10;;
69954;SDS011;57279;55.912;37.490;2023-04-25T05:21:03;28.73;;;9.23;;
69954;SDS011;57279;55.912;37.490;2023-04-25T05:23:44;22.63;;;9.45;;
69954;SDS011;57279;55.912;37.490;2023-04-25T05:26:28;27.35;;;9.60;;
69954;SDS011;57279;55.912;37.490;2023-04-25T05:29:19;29.92;;;9.27;;
69954;SDS011;57279;55.912;37.490;2023-04-25T05:31:59;28.70;;;10.05;;
69954;SDS011;57279;55.912;37.490;2023-04-25T05:34:26;22.50;;;9.63;;
69954;SDS011;57279;55.912;37.490;2023-04-25T05:36:58;19.95;;;7.30;;
69954;SDS011;57279;55.912;37.490;2023-04-25T05:39:24;21.67;;;7.30;;
69954;SDS011;57279;55.912;37.490;2023-04-25T05:42:05;22.33;;;9.15;;
69954;SDS011;57279;55.912;37.490;2023-04-25T05:44:42;22.25;;;8.98;;
69954;SDS011;57279;55.912;37.490;2023-04-25T05:47:20;23.65;;;8.80;;
69954;SDS011;57279;55.912;37.490;2023-04-25T05:50:02;16.40;;;6.53;;
69954;SDS011;57279;55.912;37.490;2023-04-25T05:52:50;16.75;;;6.68;;
69954;SDS011;57279;55.912;37.490;2023-04-25T05:55:35;18.70;;;6.10;;
69954;SDS011;57279;55.912;37.490;2023-04-25T05:58:12;21.15;;;7.63;;
69954;SDS011;57279;55.912;37.490;2023-04-25T06:00:39;20.48;;;5.65;;
69954;SDS011;57279;55.912;37.490;2023-04-25T06:03:06;20.77;;;6.85;;
69954;SDS011;57279;55.912;37.490;2023-04-25T06:05:35;17.90;;;6.55;;
69954;SDS011;57279;55.912;37.490;2023-04-25T06:08:01;16.98;;;6.82;;
69954;SDS011;57279;55.912;37.490;2023-04-25T06:10:27;18.60;;;6.35;;
69954;SDS011;57279;55.912;37.490;2023-04-25T06:12:52;20.73;;;6.78;;
69954;SDS011;57279;55.912;37.490;2023-04-25T06:15:19;16.67;;;5.80;;
69954;SDS011;57279;55.912;37.490;2023-04-25T06:17:45;17.85;;;5.63;;
69954;SDS011;57279;55.912;37.490;2023-04-25T06:20:11;14.20;;;6.32;;
69954;SDS011;57279;55.912;37.490;2023-04-25T06:22:39;20.52;;;6.78;;
69954;SDS011;57279;55.912;37.490;2023-04-25T06:25:05;17.27;;;5.30;;
69954;SDS011;57279;55.912;37.490;2023-04-25T06:27:34;21.48;;;6.35;;
69954;SDS011;57279;55.912;37.490;2023-04-25T06:30:01;13.02;;;4.55;;
69954;SDS011;57279;55.912;37.490;2023-04-25T06:32:28;43.60;;;6.63;;
69954;SDS011;57279;55.912;37.490;2023-04-25T06:34:57;14.18;;;4.82;;
69954;SDS011;57279;55.912;37.490;2023-04-25T06:37:23;18.20;;;5.72;;
69954;SDS011;57279;55.912;37.490;2023-04-25T06:39:50;22.35;;;5.60;;
69954;SDS011;57279;55.912;37.490;2023-04-25T06:42:16;15.13;;;5.45;;
69954;SDS011;57279;55.912;37.490;2023-04-25T06:44:50;13.82;;;4.90;;
69954;SDS011;57279;55.912;37.490;2023-04-25T06:47:17;12.85;;;5.68;;
69954;SDS011;57279;55.912;37.490;2023-04-25T06:49:43;13.18;;;6.72;;
69954;SDS011;57279;55.912;37.490;2023-04-25T06:52:09;16.92;;;4.65;;
69954;SDS011;57279;55.912;37.490;2023-04-25T06:54:36;22.90;;;4.88;;
69954;SDS011;57279;55.912;37.490;2023-04-25T06:57:37;16.40;;;5.43;;
69954;SDS011;57279;55.912;37.490;2023-04-25T07:00:22;16.40;;;5.15;;
69954;SDS011;57279;55.912;37.490;2023-04-25T07:02:48;18.55;;;4.60;;
69954;SDS011;57279;55.912;37.490;2023-04-25T07:05:14;19.05;;;5.82;;
69954;SDS011;57279;55.912;37.490;2023-04-25T07:07:40;16.00;;;5.32;;
69954;SDS011;57279;55.912;37.490;2023-04-25T07:10:05;14.35;;;4.82;;
69954;SDS011;57279;55.912;37.490;2023-04-25T07:12:31;27.90;;;5.68;;
69954;SDS011;57279;55.912;37.490;2023-04-25T07:14:57;21.83;;;6.25;;
69954;SDS011;57279;55.912;37.490;2023-04-25T07:17:23;18.10;;;5.22;;
69954;SDS011;57279;55.912;37.490;2023-04-25T07:19:48;12.82;;;5.45;;
69954;SDS011;57279;55.912;37.490;2023-04-25T07:22:16;12.32;;;4.50;;
69954;SDS011;57279;55.912;37.490;2023-04-25T07:24:41;19.98;;;5.05;;
69954;SDS011;57279;55.912;37.490;2023-04-25T07:27:09;18.08;;;5.25;;
69954;SDS011;57279;55.912;37.490;2023-04-25T07:29:55;22.23;;;5.10;;
69954;SDS011;57279;55.912;37.490;2023-04-25T07:32:22;18.38;;;4.03;;
69954;SDS011;57279;55.912;37.490;2023-04-25T07:34:48;20.58;;;8.10;;
69954;SDS011;57279;55.912;37.490;2023-04-25T07:37:13;18.02;;;5.43;;
69954;SDS011;57279;55.912;37.490;2023-04-25T07:39:54;18.48;;;5.78;;
69954;SDS011;57279;55.912;37.490;2023-04-25T07:42:20;17.85;;;4.30;;
69954;SDS011;57279;55.912;37.490;2023-04-25T07:44:47;12.85;;;4.25;;
69954;SDS011;57279;55.912;37.490;2023-04-25T07:47:14;17.33;;;4.43;;
69954;SDS011;57279;55.912;37.490;2023-04-25T07:49:40;15.80;;;4.00;;
69954;SDS011;57279;55.912;37.490;2023-04-25T07:52:06;20.50;;;4.53;;
69954;SDS011;57279;55.912;37.490;2023-04-25T07:54:33;15.05;;;4.75;;
69954;SDS011;57279;55.912;37.490;2023-04-25T07:57:05;18.55;;;5.40;;
69954;SDS011;57279;55.912;37.490;2023-04-25T07:59:34;17.17;;;4.57;;
69954;SDS011;57279;55.912;37.490;2023-04-25T08:02:01;20.23;;;5.65;;
69954;SDS011;57279;55.912;37.490;2023-04-25T08:04:28;16.25;;;5.53;;
69954;SDS011;57279;55.912;37.490;2023-04-25T08:06:59;18.38;;;6.40;;
69954;SDS011;57279;55.912;37.490;2023-04-25T08:09:28;22.05;;;7.13;;
69954;SDS011;57279;55.912;37.490;2023-04-25T08:11:55;15.40;;;4.63;;
69954;SDS011;57279;55.912;37.490;2023-04-25T08:14:26;19.52;;;6.00;;
69954;SDS011;57279;55.912;37.490;2023-04-25T08:16:52;23.60;;;5.38;;
69954;SDS011;57279;55.912;37.490;2023-04-25T08:19:18;17.85;;;5.43;;
69954;SDS011;57279;55.912;37.490;2023-04-25T08:21:45;13.43;;;5.50;;
69954;SDS011;57279;55.912;37.490;2023-04-25T08:24:14;16.58;;;5.10;;
69954;SDS011;57279;55.912;37.490;2023-04-25T08:26:40;17.98;;;5.78;;
69954;SDS011;57279;55.912;37.490;2023-04-25T08:29:08;18.60;;;4.38;;
69954;SDS011;57279;55.912;37.490;2023-04-25T08:31:37;15.77;;;4.85;;
69954;SDS011;57279;55.912;37.490;2023-04-25T08:34:03;15.57;;;4.43;;
69954;SDS011;57279;55.912;37.490;2023-04-25T08:36:55;13.63;;;4.93;;
69954;SDS011;57279;55.912;37.490;2023-04-25T08:39:36;12.90;;;3.90;;
69954;SDS011;57279;55.912;37.490;2023-04-25T08:42:22;16.92;;;4.60;;
69954;SDS011;57279;55.912;37.490;2023-04-25T08:44:49;19.73;;;5.00;;
69954;SDS011;57279;55.912;37.490;2023-04-25T08:47:19;12.95;;;4.13;;
69954;SDS011;57279;55.912;37.490;2023-04-25T08:49:51;18.13;;;4.45;;
69954;SDS011;57279;55.912;37.490;2023-04-25T08:52:23;17.33;;;3.83;;
69954;SDS011;57279;55.912;37.490;2023-04-25T08:54:52;23.20;;;4.75;;
69954;SDS011;57279;55.912;37.490;2023-04-25T08:57:21;20.25;;;4.40;;
69954;SDS011;57279;55.912;37.490;2023-04-25T08:59:47;13.57;;;4.00;;
69954;SDS011;57279;55.912;37.490;2023-04-25T09:02:14;14.43;;;3.83;;
69954;SDS011;57279;55.912;37.490;2023-04-25T09:04:45;12.63;;;5.10;;
69954;SDS011;57279;55.912;37.490;2023-04-25T09:07:11;13.63;;;5.80;;
69954;SDS011;57279;55.912;37.490;2023-04-25T09:09:37;15.27;;;4.85;;
69954;SDS011;57279;55.912;37.490;2023-04-25T09:12:03;17.25;;;5.25;;
69954;SDS011;57279;55.912;37.490;2023-04-25T09:14:30;18.00;;;4.13;;
69954;SDS011;57279;55.912;37.490;2023-04-25T09:17:03;12.63;;;4.30;;
69954;SDS011;57279;55.912;37.490;2023-04-25T09:19:46;27.35;;;4.13;;
69954;SDS011;57279;55.912;37.490;2023-04-25T09:22:25;16.15;;;4.30;;
69954;SDS011;57279;55.912;37.490;2023-04-25T09:24:51;13.75;;;4.20;;
69954;SDS011;57279;55.912;37.490;2023-04-25T09:27:19;15.02;;;4.38;;
69954;SDS011;57279;55.912;37.490;2023-04-25T09:29:59;13.25;;;3.97;;
69954;SDS011;57279;55.912;37.490;2023-04-25T09:32:37;18.25;;;4.40;;
69954;SDS011;57279;55.912;37.490;2023-04-25T09:35:04;15.10;;;4.22;;
69954;SDS011;57279;55.912;37.490;2023-04-25T09:37:30;11.95;;;4.18;;
69954;SDS011;57279;55.912;37.490;2023-04-25T09:40:14;16.80;;;4.93;;
69954;SDS011;57279;55.912;37.490;2023-04-25T09:42:57;13.27;;;3.75;;
69954;SDS011;57279;55.912;37.490;2023-04-25T09:45:25;15.75;;;3.42;;
69954;SDS011;57279;55.912;37.490;2023-04-25T09:47:50;12.73;;;3.53;;
69954;SDS011;57279;55.912;37.490;2023-04-25T09:50:24;14.05;;;3.78;;
69954;SDS011;57279;55.912;37.490;2023-04-25T09:55:28;16.77;;;3.88;;
69954;SDS011;57279;55.912;37.490;2023-04-25T09:57:54;13.48;;;3.45;;
69954;SDS011;57279;55.912;37.490;2023-04-25T10:00:28;13.82;;;3.78;;
69954;SDS011;57279;55.912;37.490;2023-04-25T10:03:01;16.75;;;4.60;;
69954;SDS011;57279;55.912;37.490;2023-04-25T10:05:53;12.90;;;3.50;;
69954;SDS011;57279;55.912;37.490;2023-04-25T10:08:20;15.88;;;4.15;;
69954;SDS011;57279;55.912;37.490;2023-04-25T10:10:48;13.10;;;2.70;;
69954;SDS011;57279;55.912;37.490;2023-04-25T10:13:16;21.63;;;3.40;;
69954;SDS011;57279;55.912;37.490;2023-04-25T10:15:42;15.65;;;4.35;;
69954;SDS011;57279;55.912;37.490;2023-04-25T10:18:08;10.95;;;3.03;;
69954;SDS011;57279;55.912;37.490;2023-04-25T10:20:34;20.88;;;3.75;;
69954;SDS011;57279;55.912;37.490;2023-04-25T10:23:03;16.58;;;4.85;;
69954;SDS011;57279;55.912;37.490;2023-04-25T10:25:36;18.17;;;4.47;;
69954;SDS011;57279;55.912;37.490;2023-04-25T10:28:03;12.02;;;3.33;;
69954;SDS011;57279;55.912;37.490;2023-04-25T10:30:29;14.20;;;3.90;;
69954;SDS011;57279;55.912;37.490;2023-04-25T10:32:55;12.45;;;3.65;;
69954;SDS011;57279;55.912;37.490;2023-04-25T10:35:24;17.42;;;3.72;;
69954;SDS011;57279;55.912;37.490;2023-04-25T10:37:59;13.75;;;5.45;;
69954;SDS011;57279;55.912;37.490;2023-04-25T10:40:25;17.25;;;5.55;;
69954;SDS011;57279;55.912;37.490;2023-04-25T10:42:54;16.95;;;4.50;;
69954;SDS011;57279;55.912;37.490;2023-04-25T10:45:21;16.60;;;3.78;;
69954;SDS011;57279;55.912;37.490;2023-04-25T10:47:47;14.27;;;3.45;;
69954;SDS011;57279;55.912;37.490;2023-04-25T10:50:16;13.90;;;3.30;;
69954;SDS011;57279;55.912;37.490;2023-04-25T10:52:42;10.20;;;2.85;;
69954;SDS011;57279;55.912;37.490;2023-04-25T10:55:09;11.95;;;2.47;;
69954;SDS011;57279;55.912;37.490;2023-04-25T10:57:42;14.00;;;2.67;;
69954;SDS011;57279;55.912;37.490;2023-04-25T11:00:12;10.73;;;2.67;;
69954;SDS011;57279;55.912;37.490;2023-04-25T11:02:41;8.77;;;2.30;;
69954;SDS011;57279;55.912;37.490;2023-04-25T11:08:03;16.10;;;2.63;;
69954;SDS011;57279;55.912;37.490;2023-04-25T11:10:36;11.43;;;2.72;;
69954;SDS011;57279;55.912;37.490;2023-04-25T11:13:02;11.55;;;2.55;;
69954;SDS011;57279;55.912;37.490;2023-04-25T11:15:28;11.70;;;2.50;;
69954;SDS011;57279;55.912;37.490;2023-04-25T11:17:55;10.68;;;2.28;;
69954;SDS011;57279;55.912;37.490;2023-04-25T11:20:21;9.55;;;2.50;;
69954;SDS011;57279;55.912;37.490;2023-04-25T11:22:51;12.32;;;2.83;;
69954;SDS011;57279;55.912;37.490;2023-04-25T11:25:16;11.60;;;2.58;;
69954;SDS011;57279;55.912;37.490;2023-04-25T11:27:52;14.10;;;3.92;;
69954;SDS011;57279;55.912;37.490;2023-04-25T11:30:19;10.35;;;2.53;;
69954;SDS011;57279;55.912;37.490;2023-04-25T11:32:45;8.40;;;2.65;;
69954;SDS011;57279;55.912;37.490;2023-04-25T11:35:12;15.32;;;3.60;;
69954;SDS011;57279;55.912;37.490;2023-04-25T11:37:38;10.10;;;2.80;;
69954;SDS011;57279;55.912;37.490;2023-04-25T11:40:05;10.77;;;2.95;;
69954;SDS011;57279;55.912;37.490;2023-04-25T11:42:32;10.20;;;2.47;;
69954;SDS011;57279;55.912;37.490;2023-04-25T11:44:59;16.58;;;3.10;;
69954;SDS011;57279;55.912;37.490;2023-04-25T11:47:31;11.27;;;2.80;;
69954;SDS011;57279;55.912;37.490;2023-04-25T11:50:01;11.43;;;2.50;;
69954;SDS011;57279;55.912;37.490;2023-04-25T11:52:44;11.93;;;3.22;;
69954;SDS011;57279;55.912;37.490;2023-04-25T11:55:14;10.23;;;2.63;;
69954;SDS011;57279;55.912;37.490;2023-04-25T11:57:46;8.38;;;2.90;;
69954;SDS011;57279;55.912;37.490;2023-04-25T12:00:19;8.60;;;3.08;;
69954;SDS011;57279;55.912;37.490;2023-04-25T12:02:47;10.23;;;2.38;;
69954;SDS011;57279;55.912;37.490;2023-04-25T12:05:17;12.02;;;3.47;;
69954;SDS011;57279;55.912;37.490;2023-04-25T12:07:42;11.05;;;2.53;;
69954;SDS011;57279;55.912;37.490;2023-04-25T12:10:09;15.13;;;2.85;;
69954;SDS011;57279;55.912;37.490;2023-04-25T12:12:36;10.00;;;2.30;;
69954;SDS011;57279;55.912;37.490;2023-04-25T12:15:16;26.23;;;2.80;;
69954;SDS011;57279;55.912;37.490;2023-04-25T12:17:45;10.38;;;2.63;;
69954;SDS011;57279;55.912;37.490;2023-04-25T12:20:13;11.95;;;2.75;;
69954;SDS011;57279;55.912;37.490;2023-04-25T12:22:41;10.88;;;2.38;;
69954;SDS011;57279;55.912;37.490;2023-04-25T12:25:12;14.75;;;2.45;;
69954;SDS011;57279;55.912;37.490;2023-04-25T12:27:39;12.85;;;2.30;;
69954;SDS011;57279;55.912;37.490;2023-04-25T12:30:07;14.73;;;2.78;;
69954;SDS011;57279;55.912;37.490;2023-04-25T12:32:33;20.33;;;3.63;;
69954;SDS011;57279;55.912;37.490;2023-04-25T12:34:59;10.05;;;3.05;;
69954;SDS011;57279;55.912;37.490;2023-04-25T12:37:25;11.93;;;2.65;;
69954;SDS011;57279;55.912;37.490;2023-04-25T12:39:50;21.08;;;2.22;;
69954;SDS011;57279;55.912;37.490;2023-04-25T12:42:16;13.95;;;2.53;;
69954;SDS011;57279;55.912;37.490;2023-04-25T12:44:42;17.30;;;2.72;;
69954;SDS011;57279;55.912;37.490;2023-04-25T12:47:07;9.98;;;2.83;;
69954;SDS011;57279;55.912;37.490;2023-04-25T12:49:33;12.68;;;2.55;;
69954;SDS011;57279;55.912;37.490;2023-04-25T12:51:59;11.98;;;2.30;;
69954;SDS011;57279;55.912;37.490;2023-04-25T12:54:24;8.88;;;1.90;;
69954;SDS011;57279;55.912;37.490;2023-04-25T12:56:51;9.65;;;2.40;;
69954;SDS011;57279;55.912;37.490;2023-04-25T12:59:16;8.48;;;3.13;;
69954;SDS011;57279;55.912;37.490;2023-04-25T13:01:43;10.90;;;2.65;;
69954;SDS011;57279;55.912;37.490;2023-04-25T13:04:10;15.05;;;2.40;;
69954;SDS011;57279;55.912;37.490;2023-04-25T13:06:36;17.17;;;3.17;;
69954;SDS011;57279;55.912;37.490;2023-04-25T13:09:02;13.02;;;2.67;;
69954;SDS011;57279;55.912;37.490;2023-04-25T13:11:28;14.13;;;2.33;;
69954;SDS011;57279;55.912;37.490;2023-04-25T13:13:55;8.90;;;3.30;;
69954;SDS011;57279;55.912;37.490;2023-04-25T13:16:20;10.48;;;2.63;;
69954;SDS011;57279;55.912;37.490;2023-04-25T13:18:46;15.00;;;2.60;;
69954;SDS011;57279;55.912;37.490;2023-04-25T13:21:12;13.45;;;2.75;;
69954;SDS011;57279;55.912;37.490;2023-04-25T13:23:38;10.05;;;3.20;;
69954;SDS011;57279;55.912;37.490;2023-04-25T13:26:07;14.85;;;2.83;;
69954;SDS011;57279;55.912;37.490;2023-04-25T13:28:32;13.68;;;2.78;;
69954;SDS011;57279;55.912;37.490;2023-04-25T13:30:58;10.57;;;2.67;;
69954;SDS011;57279;55.912;37.490;2023-04-25T13:33:24;14.82;;;3.78;;
69954;SDS011;57279;55.912;37.490;2023-04-25T13:35:51;19.20;;;3.67;;
69954;SDS011;57279;55.912;37.490;2023-04-25T13:38:20;11.55;;;2.50;;
69954;SDS011;57279;55.912;37.490;2023-04-25T13:40:47;12.05;;;2.45;;
69954;SDS011;57279;55.912;37.490;2023-04-25T13:43:14;15.50;;;2.42;;
69954;SDS011;57279;55.912;37.490;2023-04-25T13:45:39;14.65;;;3.88;;
69954;SDS011;57279;55.912;37.490;2023-04-25T13:48:06;17.33;;;3.25;;
69954;SDS011;57279;55.912;37.490;2023-04-25T13:50:31;12.15;;;2.90;;
69954;SDS011;57279;55.912;37.490;2023-04-25T13:52:57;15.80;;;2.67;;
69954;SDS011;57279;55.912;37.490;2023-04-25T13:55:23;14.70;;;4.43;;
69954;SDS011;57279;55.912;37.490;2023-04-25T13:57:48;21.40;;;3.88;;
69954;SDS011;57279;55.912;37.490;2023-04-25T14:00:14;13.63;;;3.10;;
69954;SDS011;57279;55.912;37.490;2023-04-25T14:02:40;9.73;;;4.05;;
69954;SDS011;57279;55.912;37.490;2023-04-25T14:05:06;13.80;;;3.45;;
69954;SDS011;57279;55.912;37.490;2023-04-25T14:07:33;12.60;;;3.35;;
69954;SDS011;57279;55.912;37.490;2023-04-25T14:10:00;14.55;;;3.90;;
69954;SDS011;57279;55.912;37.490;2023-04-25T14:12:26;13.25;;;3.00;;
69954;SDS011;57279;55.912;37.490;2023-04-25T14:14:51;13.05;;;3.95;;
69954;SDS011;57279;55.912;37.490;2023-04-25T14:17:20;16.00;;;3.15;;
69954;SDS011;57279;55.912;37.490;2023-04-25T14:19:45;15.38;;;3.95;;
69954;SDS011;57279;55.912;37.490;2023-04-25T14:22:16;12.80;;;3.75;;
69954;SDS011;57279;55.912;37.490;2023-04-25T14:24:42;11.38;;;2.65;;
69954;SDS011;57279;55.912;37.490;2023-04-25T14:27:07;11.23;;;2.85;;
69954;SDS011;57279;55.912;37.490;2023-04-25T14:29:34;11.48;;;2.90;;
69954;SDS011;57279;55.912;37.490;2023-04-25T14:32:00;15.25;;;3.40;;
69954;SDS011;57279;55.912;37.490;2023-04-25T14:34:25;15.75;;;3.92;;
69954;SDS011;57279;55.912;37.490;2023-04-25T14:36:51;16.35;;;3.55;;
69954;SDS011;57279;55.912;37.490;2023-04-25T14:39:17;13.65;;;3.17;;